Portada
METAR-TAF:

METAR-TAF

Aeropuertos :

Cervia, Italia

latitud: 44-13N, longitud: 012-18E, altitud: 6 m

Observación

El informe se hizo hace 37 minutos, a las 02:55 UTC
Viento 3 kt del noroeste
Temperatura 12°C
Humedad 88%
Presión 1017 hPa
Visibilidad 10 km o más
sin nubes por debajo de 1500 m y sin presencia de cumulonimbus.

METAR: LIPC 010255Z 31003KT CAVOK 12/10 Q1017 RMK FEW FEW100 VIS MIN 9999 WIND THR11 30003KT WIND THR29 31003KT BLU

Hora: 05:32 (03:32 UTC)

Pronóstico

El informe se hizo hace 1 hora y 32 minutos, a las 02:00 UTC
Pronóstico válido del 01 a las 03 UTC al 01 a las 12 UTC
Viento 5 kt del sur-sureste
Visibilidad 10 km o más
sin nubes por debajo de 1500 m y sin presencia de cumulonimbus.

TAF: LIPC 010200Z 0103/0112 15005KT CAVOK

Observaciones y pronósticos meteorológicos de más de 4000 aeropuertos (mensajes METAR y TAF).

Los puntos amarillos y rojos representan las estaciones disponibles.

Ponga el ratón en el punto deseado para ver el nombre de la estación.

Haga clic para ver las observaciones y los pronósticos meteorológicos.

Para cambiar el mapa : haga clic en los botones verdes con una cruz de color negro para hacer un zoom, en el botón verde con un guión para alejar o en las flechas verdes para mapas adyacentes.


METAR-TAF: